createdAt,value
2019-05-10T00:00:27.733Z,13.00
2019-05-10T00:03:17.271Z,12.98
2019-05-10T00:06:06.477Z,12.96
2019-05-10T00:08:46.021Z,12.96
2019-05-10T00:11:37.158Z,12.94
2019-05-10T00:14:30.295Z,12.92
2019-05-10T00:17:03.530Z,12.89
2019-05-10T00:19:35.122Z,12.89
2019-05-10T00:22:06.538Z,12.88
2019-05-10T00:24:37.918Z,12.87
2019-05-10T00:27:09.363Z,12.88
2019-05-10T00:29:40.882Z,12.84
2019-05-10T00:32:12.299Z,12.81
2019-05-10T00:34:43.682Z,12.83
2019-05-10T00:37:15.224Z,12.81
2019-05-10T00:39:46.598Z,12.86
2019-05-10T00:42:18.069Z,12.82
2019-05-10T00:44:49.500Z,12.85
2019-05-10T00:47:20.897Z,12.86
2019-05-10T00:49:52.259Z,12.88
2019-05-10T00:52:23.606Z,12.85
2019-05-10T00:54:55.118Z,12.83
2019-05-10T00:57:26.402Z,12.80
2019-05-10T00:59:57.763Z,12.79
2019-05-10T01:02:29.150Z,12.74
2019-05-10T01:05:00.601Z,12.66
2019-05-10T01:07:31.978Z,12.59
2019-05-10T01:10:04.442Z,12.61
2019-05-10T01:12:35.814Z,12.60
2019-05-10T01:15:08.101Z,12.59
2019-05-10T01:17:39.441Z,12.55
2019-05-10T01:20:10.847Z,12.56
2019-05-10T01:22:42.258Z,12.56
2019-05-10T01:25:13.619Z,12.58
2019-05-10T01:27:46.016Z,12.58
2019-05-10T01:30:17.612Z,12.61
2019-05-10T01:32:49.229Z,12.62
2019-05-10T01:35:20.590Z,12.58
2019-05-10T01:37:51.930Z,12.60
2019-05-10T01:40:23.325Z,12.60
2019-05-10T01:42:54.682Z,12.59
2019-05-10T01:45:25.978Z,12.58
2019-05-10T01:47:57.443Z,12.57
2019-05-10T01:50:28.855Z,12.50
2019-05-10T01:53:00.219Z,12.53
2019-05-10T01:55:31.091Z,12.55
2019-05-10T01:58:02.178Z,12.51
2019-05-10T02:00:33.604Z,12.58
2019-05-10T02:03:04.981Z,12.59
2019-05-10T02:05:36.416Z,12.62
2019-05-10T03:34:15.954Z,12.90
2019-05-10T03:36:47.301Z,12.95
2019-05-10T03:39:18.672Z,12.91
2019-05-10T03:41:50.036Z,12.95
2019-05-10T03:44:21.491Z,13.00
2019-05-10T03:46:54.333Z,13.04
2019-05-10T03:49:25.694Z,13.07
2019-05-10T03:51:57.100Z,13.07
2019-05-10T03:54:28.492Z,13.09
2019-05-10T03:57:12.382Z,13.08
2019-05-10T03:59:32.901Z,13.10
2019-05-10T04:02:04.241Z,13.10
2019-05-10T04:04:35.643Z,13.14
2019-05-10T04:07:07.134Z,13.17
2019-05-10T04:09:37.780Z,13.16
2019-05-10T04:12:08.811Z,13.14
2019-05-10T04:14:40.173Z,13.25
2019-05-10T04:17:11.499Z,13.25
2019-05-10T04:19:42.872Z,13.31
2019-05-10T04:22:16.659Z,13.34
2019-05-10T04:24:48.020Z,13.35
2019-05-10T04:27:31.656Z,13.42
2019-05-10T04:29:52.369Z,13.46
2019-05-10T04:32:23.696Z,13.57
2019-05-10T04:34:55.075Z,13.60
2019-05-10T04:37:26.482Z,13.64
2019-05-10T04:39:57.840Z,13.74
2019-05-10T04:42:29.237Z,13.72
2019-05-10T04:45:00.619Z,13.80
2019-05-10T04:47:31.997Z,13.78
2019-05-10T04:50:03.480Z,13.75
2019-05-10T04:52:34.880Z,13.74
2019-05-10T04:55:07.165Z,13.74
2019-05-10T04:57:49.769Z,13.79
2019-05-10T05:00:11.756Z,13.82
2019-05-10T05:02:42.381Z,13.88
2019-05-10T05:05:13.414Z,13.83
2019-05-10T05:07:45.245Z,13.88
2019-05-10T05:10:16.702Z,13.89
2019-05-10T05:12:48.963Z,13.98
2019-05-10T05:15:21.481Z,14.06
2019-05-10T05:17:52.835Z,14.05
2019-05-10T05:20:24.407Z,14.15
2019-05-10T05:22:55.727Z,14.17
2019-05-10T05:25:27.107Z,14.24
2019-05-10T05:28:07.464Z,14.29
2019-05-10T05:30:31.508Z,14.44
2019-05-10T05:33:02.821Z,14.53
2019-05-10T05:35:34.214Z,14.59
2019-05-10T05:38:05.560Z,14.61
2019-05-10T05:40:37.052Z,14.72
2019-05-10T05:43:09.838Z,14.74
2019-05-10T05:45:41.695Z,14.80
2019-05-10T05:48:16.056Z,14.92
2019-05-10T05:50:46.314Z,14.95
2019-05-10T07:30:41.294Z,16.07
2019-05-10T07:33:37.251Z,16.36
2019-05-10T07:36:15.180Z,16.54
2019-05-10T07:38:53.886Z,16.48
2019-05-10T07:41:28.948Z,16.47
2019-05-10T07:44:00.558Z,16.59
2019-05-10T07:46:31.589Z,16.74
2019-05-10T07:49:03.817Z,16.92
2019-05-10T07:51:34.290Z,16.99
2019-05-10T07:54:06.394Z,16.91
2019-05-10T07:56:39.076Z,17.00
2019-05-10T07:59:16.341Z,17.09
2019-05-10T08:01:48.462Z,17.21
2019-05-10T08:04:19.693Z,17.22
2019-05-10T08:06:51.953Z,17.32
2019-05-10T08:09:23.590Z,17.30
2019-05-10T08:12:03.310Z,17.17
2019-05-10T08:14:29.159Z,17.32
2019-05-10T08:17:05.772Z,17.46
2019-05-10T08:19:37.517Z,17.32
2019-05-10T08:22:09.375Z,17.35
2019-05-10T08:24:46.428Z,17.41
2019-05-10T08:27:17.414Z,17.56
2019-05-10T08:29:52.874Z,17.78
2019-05-10T08:32:25.475Z,17.68
2019-05-10T08:34:55.955Z,17.85
2019-05-10T08:37:35.965Z,17.94
2019-05-10T08:40:03.175Z,18.02
2019-05-10T08:42:44.205Z,18.18
2019-05-10T08:45:09.028Z,18.21
2019-05-10T08:47:42.562Z,18.24
2019-05-10T08:50:29.198Z,18.31
2019-05-10T08:52:46.554Z,18.39
2019-05-10T08:55:17.736Z,18.31
2019-05-10T08:57:49.520Z,18.26
2019-05-10T09:00:40.166Z,18.39
2019-05-10T09:02:53.905Z,18.70
2019-05-10T09:05:28.779Z,18.58
2019-05-10T09:07:58.223Z,18.56
2019-05-10T09:10:32.327Z,18.36
2019-05-10T09:13:03.923Z,18.16
2019-05-10T09:15:35.297Z,18.13
2019-05-10T09:18:07.593Z,18.19
2019-05-10T09:20:42.413Z,18.25
2019-05-10T09:23:18.653Z,18.30
2019-05-10T09:25:47.989Z,18.40
2019-05-10T09:28:19.302Z,18.60
2019-05-10T09:40:25.529Z,18.41
2019-05-10T09:42:59.423Z,18.42
2019-05-10T09:45:32.269Z,18.47
2019-05-10T09:48:02.767Z,18.49
2019-05-10T09:50:41.337Z,18.42
2019-05-10T09:53:09.482Z,18.57
2019-05-10T09:55:45.571Z,18.43
2019-05-10T09:58:21.762Z,18.46
2019-05-10T10:00:48.786Z,18.73
2019-05-10T10:03:21.737Z,18.84
2019-05-10T10:05:55.160Z,18.97
2019-05-10T10:08:28.815Z,19.01
2019-05-10T10:11:13.485Z,19.06
2019-05-10T10:13:59.208Z,19.02
2019-05-10T10:16:31.343Z,19.10
2019-05-10T10:19:02.579Z,19.11
2019-05-10T10:21:35.529Z,19.05
2019-05-10T10:24:15.665Z,19.14
2019-05-10T10:26:39.815Z,19.13
2019-05-10T10:29:11.064Z,19.20
2019-05-10T10:31:51.079Z,19.35
2019-05-10T10:34:17.364Z,19.36
2019-05-10T10:36:48.275Z,19.15
2019-05-10T10:39:22.803Z,19.22
2019-05-10T10:41:52.509Z,19.23
2019-05-10T10:44:23.724Z,19.17
2019-05-10T10:46:54.988Z,19.09
2019-05-10T10:49:27.981Z,19.12
2019-05-10T10:51:59.408Z,19.08
2019-05-10T10:54:36.164Z,19.04
2019-05-10T10:57:02.753Z,18.89
2019-05-10T10:59:33.942Z,18.84
2019-05-10T11:02:31.614Z,18.80
2019-05-10T11:04:49.413Z,18.63
2019-05-10T11:07:25.162Z,18.68
2019-05-10T11:10:22.464Z,18.79
2019-05-10T11:13:18.307Z,18.81
2019-05-10T11:15:44.044Z,18.82
2019-05-10T11:18:14.837Z,18.92
2019-05-10T11:20:49.439Z,18.92
2019-05-10T11:23:24.511Z,19.02
2019-05-10T11:25:56.436Z,18.98
2019-05-10T11:28:30.136Z,19.00
2019-05-10T11:31:01.178Z,19.08
2019-05-10T11:33:33.984Z,19.19
2019-05-10T11:36:08.577Z,19.23
2019-05-10T11:38:38.307Z,19.18
2019-05-10T11:41:13.560Z,19.10
2019-05-10T11:43:43.054Z,19.02
2019-05-10T11:46:14.339Z,19.13
2019-05-10T11:48:45.567Z,19.14
2019-05-10T11:51:17.586Z,19.15
2019-05-10T11:53:54.581Z,19.21
2019-05-10T11:56:28.448Z,19.33
2019-05-10T11:59:02.592Z,19.23
2019-05-10T12:01:41.203Z,19.60
2019-05-10T12:04:13.043Z,19.78
2019-05-10T12:06:50.099Z,19.83
2019-05-10T12:09:14.975Z,19.95
2019-05-10T12:11:51.914Z,20.03
2019-05-10T12:14:21.890Z,19.91
2019-05-10T12:16:54.654Z,20.07
2019-05-10T12:19:36.620Z,19.95
2019-05-10T12:22:04.726Z,19.87
2019-05-10T12:24:46.669Z,19.85
2019-05-10T12:27:18.700Z,19.93
2019-05-10T12:29:40.929Z,19.85
2019-05-10T12:32:14.621Z,19.77
2019-05-10T12:34:51.969Z,19.73
2019-05-10T12:37:20.273Z,19.74
2019-05-10T12:39:53.178Z,19.68
2019-05-10T12:42:27.106Z,19.86
2019-05-10T12:44:58.358Z,19.90
2019-05-10T12:47:30.568Z,19.90
2019-05-10T12:50:03.559Z,19.84
2019-05-10T12:52:35.039Z,19.95
2019-05-10T12:55:09.030Z,19.80
2019-05-10T12:57:43.069Z,19.80
2019-05-10T13:00:17.411Z,19.93
2019-05-10T13:02:53.641Z,20.11
2019-05-10T13:05:31.875Z,20.17
2019-05-10T13:08:00.046Z,20.25
2019-05-10T13:10:31.422Z,20.41
2019-05-10T13:13:04.524Z,20.54
2019-05-10T13:15:44.306Z,20.53
2019-05-10T13:18:17.466Z,20.31
2019-05-10T13:20:52.210Z,20.48
2019-05-10T13:23:23.403Z,20.64
2019-05-10T13:26:02.313Z,20.68
2019-05-10T13:28:44.794Z,20.87
2019-05-10T13:31:23.255Z,20.87
2019-05-10T13:33:54.503Z,20.88
2019-05-10T13:39:36.771Z,21.12
2019-05-10T13:42:09.722Z,21.07
2019-05-10T13:44:42.908Z,21.04
2019-05-10T13:47:14.221Z,21.11
2019-05-10T13:49:48.962Z,20.99
2019-05-10T13:52:37.714Z,20.99
2019-05-10T13:55:12.058Z,20.78
2019-05-10T13:57:43.662Z,20.46
2019-05-10T14:00:15.779Z,20.29
2019-05-10T14:02:47.133Z,20.19
2019-05-10T14:08:47.995Z,19.96
2019-05-10T14:11:15.230Z,19.78
2019-05-10T14:13:46.466Z,19.77
2019-05-10T14:16:19.911Z,19.55
2019-05-10T14:21:57.758Z,20.05
2019-05-10T14:24:41.505Z,19.81
2019-05-10T14:27:16.406Z,19.67
2019-05-10T14:29:47.834Z,19.57
2019-05-10T14:32:20.168Z,19.43
2019-05-10T14:34:51.512Z,19.34
2019-05-10T14:37:22.761Z,19.30
2019-05-10T14:39:55.154Z,19.21
2019-05-10T14:42:31.195Z,19.15
2019-05-10T14:44:59.558Z,19.12
2019-05-10T14:47:30.835Z,19.13
2019-05-10T14:50:02.203Z,19.12
2019-05-10T14:52:32.972Z,19.01
2019-05-10T14:55:06.335Z,18.94
2019-05-10T14:57:38.811Z,18.94
2019-05-10T15:00:11.183Z,18.92
2019-05-10T15:02:41.954Z,18.84
2019-05-10T15:05:15.755Z,18.66
2019-05-10T15:07:46.162Z,18.59
2019-05-10T15:10:17.436Z,18.48
2019-05-10T15:12:48.748Z,18.41
2019-05-10T15:15:20.843Z,18.25
2019-05-10T15:17:55.098Z,18.30
2019-05-10T15:20:24.521Z,18.06
2019-05-10T15:22:55.860Z,18.07
2019-05-10T15:25:27.165Z,17.98
2019-05-10T15:28:00.406Z,17.93
2019-05-10T15:30:31.474Z,17.90
2019-05-10T15:33:02.311Z,17.72
2019-05-10T15:35:33.293Z,17.50
2019-05-10T15:38:04.581Z,17.43
2019-05-10T15:40:38.756Z,17.24
2019-05-10T15:43:10.622Z,17.23
2019-05-10T15:45:45.926Z,17.21
2019-05-10T15:48:15.868Z,17.11
2019-05-10T15:50:47.056Z,17.24
2019-05-10T15:53:19.350Z,17.14
2019-05-10T15:55:51.393Z,17.19
2019-05-10T15:58:23.705Z,17.23
2019-05-10T16:00:54.984Z,17.03
2019-05-10T16:03:26.255Z,17.14
2019-05-10T16:06:00.921Z,17.27
2019-05-10T16:08:32.029Z,17.26
2019-05-10T16:11:18.058Z,17.35
2019-05-10T16:13:39.204Z,17.28
2019-05-10T16:16:09.780Z,17.39
2019-05-10T16:18:41.794Z,17.22
2019-05-10T16:21:15.096Z,17.24
2019-05-10T16:23:48.383Z,17.45
2019-05-10T16:26:23.094Z,17.60
2019-05-10T16:29:01.754Z,17.38
2019-05-10T16:31:28.948Z,17.49
2019-05-10T16:34:00.550Z,17.59
2019-05-10T16:36:31.413Z,17.67
2019-05-10T16:39:02.730Z,17.59
2019-05-10T16:41:35.695Z,17.63
2019-05-10T16:44:06.479Z,17.59
2019-05-10T16:46:37.590Z,17.31
2019-05-10T16:49:10.097Z,17.06
2019-05-10T16:51:42.298Z,16.89
2019-05-10T16:54:24.695Z,16.70
2019-05-10T16:56:51.614Z,16.56
2019-05-10T16:59:24.269Z,16.43
2019-05-10T17:02:03.577Z,16.29
2019-05-10T17:04:31.924Z,16.14
2019-05-10T17:07:12.786Z,16.02
2019-05-10T17:09:44.539Z,15.87
2019-05-10T17:12:15.908Z,15.76
2019-05-10T17:14:50.585Z,15.69
2019-05-10T17:20:19.794Z,15.45
2019-05-10T17:22:51.471Z,15.33
2019-05-10T17:25:24.967Z,15.26
2019-05-10T17:27:59.828Z,15.19
2019-05-10T17:30:29.717Z,15.08
2019-05-10T17:33:04.117Z,15.00
2019-05-10T17:35:36.524Z,14.90
2019-05-10T17:38:13.926Z,14.86
2019-05-10T17:40:42.326Z,14.79
2019-05-10T17:43:20.410Z,14.77
2019-05-10T17:45:47.319Z,14.70
2019-05-10T17:48:18.695Z,14.54
2019-05-10T17:50:50.028Z,14.45
2019-05-10T17:53:33.105Z,14.43
2019-05-10T17:56:06.149Z,14.36
2019-05-10T17:58:37.148Z,14.33
2019-05-10T18:01:08.291Z,14.17
2019-05-10T18:03:39.345Z,14.14
2019-05-10T18:06:23.640Z,13.89
2019-05-10T18:08:45.894Z,13.91
2019-05-10T18:11:19.566Z,13.89
2019-05-10T18:13:50.600Z,13.84
2019-05-10T18:16:21.829Z,13.68
2019-05-10T18:26:00.947Z,13.70
2019-05-10T18:28:34.439Z,13.58
2019-05-10T18:31:05.334Z,13.51
2019-05-10T18:33:36.584Z,13.41
2019-05-10T18:36:12.787Z,13.46
2019-05-10T18:38:44.357Z,13.44
2019-05-10T18:41:15.204Z,13.42
2019-05-10T18:43:46.417Z,13.22
2019-05-10T18:46:19.680Z,13.26
2019-05-10T18:48:52.693Z,13.27
2019-05-10T18:51:26.316Z,13.25
2019-05-10T18:53:58.345Z,13.21
2019-05-10T18:56:31.409Z,13.18
2019-05-10T18:59:07.370Z,13.14
2019-05-10T19:01:38.874Z,13.12
2019-05-10T19:04:14.003Z,13.09
2019-05-10T19:06:44.278Z,13.02
2019-05-10T19:09:16.033Z,13.05
2019-05-10T19:11:50.520Z,13.01
2019-05-10T19:14:23.799Z,13.04
2019-05-10T19:16:55.136Z,12.96
2019-05-10T19:19:26.005Z,12.93
2019-05-10T19:21:57.215Z,12.74
2019-05-10T19:24:30.414Z,12.80
2019-05-10T19:27:07.340Z,12.88
2019-05-10T19:29:45.597Z,12.93
2019-05-10T19:32:17.582Z,12.86
2019-05-10T19:34:48.496Z,12.86
2019-05-10T19:37:29.847Z,12.85
2019-05-10T19:39:50.848Z,12.82
2019-05-10T19:42:22.280Z,12.86
2019-05-10T19:44:54.978Z,12.90
2019-05-10T19:47:27.984Z,12.94
2019-05-10T19:50:02.759Z,13.08
2019-05-10T19:52:34.294Z,13.14
2019-05-10T19:55:05.133Z,13.14
2019-05-10T19:57:36.232Z,13.04
2019-05-10T20:00:07.699Z,13.04
2019-05-10T20:02:38.485Z,13.12
2019-05-10T20:05:09.587Z,13.10
2019-05-10T20:07:45.772Z,13.17
2019-05-10T20:10:14.235Z,13.17
2019-05-10T20:12:45.058Z,13.15
2019-05-10T20:15:16.175Z,13.03
2019-05-10T20:17:47.623Z,13.07
2019-05-10T20:20:18.967Z,13.04
2019-05-10T20:22:50.411Z,12.94
2019-05-10T20:25:21.810Z,12.91
2019-05-10T20:27:53.188Z,12.84
2019-05-10T20:30:24.601Z,12.79
2019-05-10T20:32:56.108Z,12.75
2019-05-10T20:35:27.447Z,12.71
2019-05-10T20:38:02.154Z,12.64
2019-05-10T20:40:32.467Z,12.64
2019-05-10T20:43:03.840Z,12.60
2019-05-10T20:45:35.375Z,12.54
2019-05-10T20:48:06.807Z,12.56
2019-05-10T20:50:38.268Z,12.58
2019-05-10T20:53:09.618Z,12.59
2019-05-10T20:55:41.016Z,12.55
2019-05-10T20:58:12.428Z,12.52
2019-05-10T21:00:43.956Z,12.50
2019-05-10T21:03:15.303Z,12.46
2019-05-10T21:05:47.628Z,12.44
2019-05-10T21:08:19.051Z,12.46
2019-05-10T21:10:50.446Z,12.40
2019-05-10T21:13:21.776Z,12.38
2019-05-10T21:15:53.178Z,12.30
2019-05-10T21:18:24.576Z,12.27
2019-05-10T21:20:56.108Z,12.27
2019-05-10T21:23:27.496Z,12.23
2019-05-10T21:25:59.989Z,12.20
2019-05-10T21:28:31.401Z,12.18
2019-05-10T21:31:02.908Z,12.14
2019-05-10T21:33:34.247Z,12.10
2019-05-10T21:36:05.607Z,12.10
2019-05-10T21:38:36.966Z,12.08
2019-05-10T21:41:08.375Z,12.08
2019-05-10T21:43:39.729Z,12.12
2019-05-10T21:46:11.111Z,12.15
2019-05-10T21:48:42.523Z,12.18
2019-05-10T21:51:13.877Z,12.25
2019-05-10T21:53:45.275Z,12.33
2019-05-10T21:56:16.631Z,12.36
2019-05-10T21:58:48.017Z,12.42
2019-05-10T22:01:19.501Z,12.49
2019-05-10T22:03:50.838Z,12.56
2019-05-10T22:06:22.226Z,12.62
2019-05-10T22:08:53.591Z,12.63
2019-05-10T22:11:25.149Z,12.65
2019-05-10T22:13:55.885Z,12.70
2019-05-10T22:16:26.933Z,12.66
2019-05-10T22:19:02.659Z,12.75
2019-05-10T22:21:34.006Z,12.81
2019-05-10T22:24:08.459Z,12.88
2019-05-10T22:26:39.905Z,12.91
2019-05-10T22:29:11.368Z,12.96
2019-05-10T22:31:43.685Z,13.02
2019-05-10T22:34:14.664Z,13.04
2019-05-10T22:36:45.766Z,12.95
2019-05-10T22:39:17.096Z,12.98
2019-05-10T22:41:48.520Z,13.01
2019-05-10T22:44:19.923Z,13.02
2019-05-10T22:46:51.318Z,13.05
2019-05-10T22:49:22.817Z,13.05
2019-05-10T22:51:55.273Z,13.03
2019-05-10T22:54:26.611Z,13.05
2019-05-10T22:56:58.057Z,13.04
2019-05-10T22:59:29.465Z,13.04
2019-05-10T23:02:01.819Z,13.02
2019-05-10T23:04:33.335Z,13.05
2019-05-10T23:07:04.721Z,13.01
2019-05-10T23:09:36.098Z,13.01
2019-05-10T23:12:07.467Z,13.00
2019-05-10T23:14:38.941Z,12.99
2019-05-10T23:17:10.357Z,12.96
2019-05-10T23:19:41.692Z,12.95
2019-05-10T23:22:13.048Z,12.82
2019-05-10T23:24:44.372Z,12.82
2019-05-10T23:27:15.856Z,12.87
2019-05-10T23:29:47.163Z,12.85
2019-05-10T23:32:18.544Z,12.83
2019-05-10T23:34:49.864Z,12.84
2019-05-10T23:37:21.239Z,12.83
2019-05-10T23:39:52.623Z,12.83
2019-05-10T23:42:24.122Z,12.83
2019-05-10T23:44:55.495Z,12.84
2019-05-10T23:47:26.864Z,12.85
2019-05-10T23:49:59.477Z,12.86
2019-05-10T23:52:30.832Z,12.86
2019-05-10T23:55:02.282Z,12.87
2019-05-10T23:57:33.687Z,12.85
